Carrier Princess — CZ3582 — position and weather

sailwx.info

Track history (hours):
 
Tides and Currents Weather Stations Pressure Air Temp Water Temp Dewpoint Dewpoint Depression Visibility Wind Speed Wind Dir Waves Ship Positions

Carrier Princess

Last reported at 2016-Jun-29 15:33 UTC. Time now 2016-Jun-29 16:34 UTC.
Position N 49°10' W 123°56'.

Length 112 m; draft 3 m.

Type: Cargo ship. MMSI: 316003656.

Date/timePositionNaut miles runAvg speedWind from/ knotsBaromVisibWave heightAir tempDewpointWater temp
2016-Jun-29 15:33N 49°10' W 123°56'0 0.0
2016-Jun-29 14:33N 49°10' W 123°56'0 0.0
2016-Jun-29 13:33N 49°10' W 123°56'0 0.0
2016-Jun-29 12:33N 49°10' W 123°56'0 0.0
2016-Jun-29 11:33N 49°10' W 123°56'6 6.2
2016-Jun-29 10:33N 49°14' W 123°48'1313.4
2016-Jun-29 09:33N 49°09' W 123°29'1312.8
2016-Jun-29 08:34N 49°07' W 123°10'5 5.4
2016-Jun-29 07:33N 49°09' W 123°02'0 0.0
2016-Jun-29 06:33N 49°09' W 123°02'1010.3
2016-Jun-29 05:33N 49°06' W 123°17'1211.7
2016-Jun-29 04:33N 48°55' W 123°18'1111.3
2016-Jun-29 03:33N 48°44' W 123°24'3 1.3
2016-Jun-29 01:27N 48°41' W 123°24'910.7
2016-Jun-29 00:34N 48°51' W 123°21'1212.4
2016-Jun-28 23:33N 49°03' W 123°20'1211.7
2016-Jun-28 22:33N 49°08' W 123°04'1 1.2
2016-Jun-28 21:33N 49°09' W 123°02'1 1.2
2016-Jun-28 20:33N 49°08' W 123°03'1010.3
2016-Jun-28 19:33N 49°06' W 123°19'1312.6
2016-Jun-28 18:33N 49°10' W 123°37'1111.3
2016-Jun-28 17:33N 49°10' W 123°54'1 1.0
2016-Jun-28 16:32N 49°10' W 123°56'0 0.0
2016-Jun-28 15:28N 49°10' W 123°56'0 0.0
2016-Jun-28 14:33N 49°10' W 123°56'0 0.0
2016-Jun-28 13:33N 49°10' W 123°56'0 0.0
2016-Jun-28 12:33N 49°10' W 123°56'0 0.0
2016-Jun-28 11:33N 49°10' W 123°56'6 5.6
2016-Jun-28 10:33N 49°13' W 123°49'1212.3
2016-Jun-28 09:33N 49°09' W 123°31'1313.0
2016-Jun-28 08:34N 49°07' W 123°12'6 6.5
2016-Jun-28 07:33N 49°09' W 123°02'0 0.0
2016-Jun-28 06:33N 49°09' W 123°02'17 8.6
2016-Jun-28 04:33N 48°55' W 123°18'1111.5
2016-Jun-28 03:33N 48°44' W 123°23'3 1.3
2016-Jun-28 01:22N 48°41' W 123°24'810.1
2016-Jun-28 00:33N 48°49' W 123°21'1212.3
2016-Jun-27 23:34N 49°01' W 123°19'1212.2
2016-Jun-27 22:34N 49°08' W 123°03'1 1.0
2016-Jun-27 21:33N 49°09' W 123°02'0 0.0
2016-Jun-27 20:33N 49°09' W 123°02'0 0.0
2016-Jun-27 19:33N 49°09' W 123°02'0 0.0
2016-Jun-27 18:33N 49°09' W 123°02'0 0.0
2016-Jun-27 17:33N 49°09' W 123°02'0 0.0
2016-Jun-27 16:33N 49°09' W 123°02'0 0.0
2016-Jun-27 15:33N 49°09' W 123°02'0 0.0
2016-Jun-27 14:33N 49°09' W 123°02'0 0.0
2016-Jun-27 13:33N 49°09' W 123°02'0 0.0
2016-Jun-27 12:33N 49°09' W 123°02'0 0.0
2016-Jun-27 11:33N 49°09' W 123°02'0 0.0
2016-Jun-27 10:33N 49°09' W 123°02'0 0.0
2016-Jun-27 09:33N 49°09' W 123°02'0 0.0
2016-Jun-27 08:33N 49°09' W 123°02'0 0.0
2016-Jun-27 07:33N 49°09' W 123°02'0 0.0
2016-Jun-27 06:33N 49°09' W 123°02'0 0.0
2016-Jun-27 05:33N 49°09' W 123°02'0 0.0
2016-Jun-27 04:33N 49°09' W 123°02'0 0.0
2016-Jun-27 03:33N 49°09' W 123°02'0 0.0
2016-Jun-27 02:33N 49°09' W 123°02'0 0.0
2016-Jun-27 01:33N 49°09' W 123°02'0 0.0
2016-Jun-27 00:33N 49°09' W 123°02'0 0.0
2016-Jun-26 23:33N 49°09' W 123°02'0 0.0
2016-Jun-26 22:33N 49°09' W 123°02'0 0.0
2016-Jun-26 21:33N 49°09' W 123°02'0 0.0
2016-Jun-26 20:33N 49°09' W 123°02'0 0.0
2016-Jun-26 19:33N 49°09' W 123°02'0 0.0
2016-Jun-26 18:33N 49°09' W 123°02'0 0.0
2016-Jun-26 17:33N 49°09' W 123°02'0 0.0
2016-Jun-26 16:33N 49°09' W 123°02'0 0.1
2016-Jun-26 15:34N 49°09' W 123°02'0 0.1
2016-Jun-26 14:33N 49°09' W 123°02'7 7.3
2016-Jun-26 13:34N 49°08' W 123°13'1010.0
2016-Jun-26 12:33N 49°08' W 123°28'1212.0
2016-Jun-26 11:33N 49°12' W 123°46'7 6.6
2016-Jun-26 10:30N 49°10' W 123°56'0 0.0
2016-Jun-26 09:31N 49°10' W 123°56'4 3.7
2016-Jun-26 08:34N 49°13' W 123°52'1110.7
2016-Jun-26 07:33N 49°11' W 123°36'1211.6
2016-Jun-26 06:33N 49°06' W 123°20'1010.4
2016-Jun-26 05:33N 49°08' W 123°04'2 1.6
2016-Jun-26 04:33N 49°09' W 123°02'0 0.0
2016-Jun-26 03:33N 49°09' W 123°02'0 0.0
2016-Jun-26 02:33N 49°09' W 123°02'0 0.0
2016-Jun-26 01:33N 49°09' W 123°02'0 0.0
2016-Jun-26 00:33N 49°09' W 123°02'0 0.0
2016-Jun-25 23:33N 49°09' W 123°02'4 3.8
2016-Jun-25 22:33N 49°07' W 123°07'8 8.2
2016-Jun-25 21:33N 49°06' W 123°20'1211.9
2016-Jun-25 20:33N 49°10' W 123°37'1111.2
2016-Jun-25 19:33N 49°11' W 123°54'2 1.7
2016-Jun-25 18:33N 49°10' W 123°56'0 0.0
2016-Jun-25 17:33N 49°10' W 123°56'0 0.0
2016-Jun-25 16:31N 49°10' W 123°56'0 0.0
2016-Jun-25 15:33N 49°10' W 123°56'0 0.0
2016-Jun-25 14:33N 49°10' W 123°56'0 0.0
2016-Jun-25 13:33N 49°10' W 123°56'0 0.0
2016-Jun-25 12:33N 49°10' W 123°56'0 0.0
2016-Jun-25 11:33N 49°10' W 123°56'6 6.0
2016-Jun-25 10:33N 49°14' W 123°49'1312.6
2016-Jun-25 09:33N 49°09' W 123°30'1212.3
2016-Jun-25 08:34N 49°07' W 123°12'7 6.6
2016-Jun-25 07:33N 49°09' W 123°02'1 0.6
2016-Jun-25 06:33N 49°08' W 123°03'1010.2
2016-Jun-25 05:33N 49°06' W 123°18'1110.8
2016-Jun-25 04:33N 48°55' W 123°17'1110.6
2016-Jun-25 03:34N 48°45' W 123°22'4 2.8
2016-Jun-25 02:04N 48°41' W 123°24'0 0.0
2016-Jun-25 01:32N 48°41' W 123°24'9 8.8
2016-Jun-25 00:33N 48°50' W 123°21'1211.6
2016-Jun-24 23:33N 49°01' W 123°20'1211.7
2016-Jun-24 22:34N 49°07' W 123°05'2 2.3
2016-Jun-24 21:34N 49°09' W 123°02'1 1.3
2016-Jun-24 20:34N 49°08' W 123°04'10 9.9
2016-Jun-24 19:33N 49°06' W 123°18'1313.4
2016-Jun-24 18:33N 49°11' W 123°38'1211.9
2016-Jun-24 17:34N 49°10' W 123°56'0 0.2
2016-Jun-24 16:33N 49°10' W 123°56'0 0.0
2016-Jun-24 15:33N 49°10' W 123°56'0 0.0
2016-Jun-24 14:33N 49°10' W 123°56'0 0.0
2016-Jun-24 13:33N 49°10' W 123°56'0 0.0
2016-Jun-24 12:33N 49°10' W 123°56'0 0.0
2016-Jun-24 11:33N 49°10' W 123°56'4 3.7
2016-Jun-24 10:34N 49°13' W 123°52'1312.7
2016-Jun-24 09:33N 49°10' W 123°33'1312.9
2016-Jun-24 08:34N 49°08' W 123°13'7 7.5
2016-Jun-24 07:33N 49°09' W 123°02'17 5.5
2016-Jun-24 04:33N 48°56' W 123°18'1111.5
2016-Jun-24 03:33N 48°45' W 123°23'4 3.3
2016-Jun-24 02:29N 48°41' W 123°24'0 0.0
2016-Jun-24 01:33N 48°41' W 123°24'1010.2
2016-Jun-24 00:33N 48°51' W 123°21'1212.1
2016-Jun-23 23:33N 49°03' W 123°19'1212.4
2016-Jun-23 22:33N 49°09' W 123°02'0 0.2
2016-Jun-23 21:33N 49°09' W 123°02'3 2.8
2016-Jun-23 20:33N 49°07' W 123°05'1010.0
2016-Jun-23 19:33N 49°06' W 123°21'1413.5
2016-Jun-23 18:33N 49°12' W 123°40'1010.5
2016-Jun-23 17:33N 49°10' W 123°56'0 0.0
2016-Jun-23 16:33N 49°10' W 123°56'0 0.0
2016-Jun-23 15:33N 49°10' W 123°56'0 0.0
2016-Jun-23 14:33N 49°10' W 123°56'0 0.0
2016-Jun-23 13:33N 49°10' W 123°56'0 0.0
2016-Jun-23 12:33N 49°10' W 123°56'0 0.0
2016-Jun-23 11:33N 49°10' W 123°56'4 4.1
2016-Jun-23 10:33N 49°13' W 123°51'1313.2
2016-Jun-23 09:33N 49°10' W 123°32'1312.5
2016-Jun-23 08:33N 49°08' W 123°13'7 7.1
2016-Jun-23 07:33N 49°09' W 123°02'12 6.2
2016-Jun-23 05:33N 49°05' W 123°20'1212.0
2016-Jun-23 04:33N 48°53' W 123°18'1212.1
2016-Jun-23 03:33N 48°41' W 123°24'0 0.1
2016-Jun-23 01:25N 48°41' W 123°24'910.9
2016-Jun-23 00:33N 48°51' W 123°21'1111.4
2016-Jun-22 23:33N 49°02' W 123°19'1111.0
2016-Jun-22 22:33N 49°07' W 123°04'2 2.0
2016-Jun-22 21:34N 49°09' W 123°02'2 2.3
2016-Jun-22 20:33N 49°07' W 123°05'9 8.8
2016-Jun-22 19:33N 49°06' W 123°18'1413.5
2016-Jun-22 18:34N 49°10' W 123°38'1211.6
2016-Jun-22 17:33N 49°10' W 123°56'0 0.1
2016-Jun-22 16:33N 49°10' W 123°56'0 0.0
2016-Jun-22 15:33N 49°10' W 123°56'0 0.0
2016-Jun-22 14:34N 49°10' W 123°56'0 0.0
2016-Jun-22 13:33N 49°10' W 123°56'0 0.0
2016-Jun-22 12:34N 49°10' W 123°56'0 0.0
2016-Jun-22 11:33N 49°10' W 123°56'5 4.8
2016-Jun-22 10:33N 49°13' W 123°50'1212.2
2016-Jun-22 09:33N 49°10' W 123°32'1313.5
2016-Jun-22 08:33N 49°07' W 123°12'7 6.7
2016-Jun-22 07:34N 49°09' W 123°02'1 0.7
2016-Jun-22 06:33N 49°08' W 123°03'1010.4
2016-Jun-22 05:34N 49°06' W 123°19'1212.2
2016-Jun-22 04:34N 48°54' W 123°18'1211.7
2016-Jun-22 03:33N 48°43' W 123°24'2 1.5
2016-Jun-22 02:31N 48°41' W 123°24'1 0.7
2016-Jun-22 01:31N 48°42' W 123°23'1010.6
2016-Jun-22 00:33N 48°52' W 123°21'1110.7
2016-Jun-21 23:33N 49°02' W 123°20'1110.6
2016-Jun-21 22:34N 49°07' W 123°05'3 2.7
2016-Jun-21 21:33N 49°09' W 123°02'3 3.3
2016-Jun-21 20:33N 49°07' W 123°06'10 9.8
2016-Jun-21 19:33N 49°06' W 123°21'1312.7
2016-Jun-21 18:33N 49°11' W 123°39'1110.8
2016-Jun-21 17:33N 49°10' W 123°56'0 0.1
2016-Jun-21 16:33N 49°10' W 123°56'0 0.0
2016-Jun-21 15:33N 49°10' W 123°56'0 0.0
2016-Jun-21 14:33N 49°10' W 123°56'0 0.0
2016-Jun-21 13:33N 49°10' W 123°56'0 0.0
2016-Jun-21 12:33N 49°10' W 123°56'0 0.0
2016-Jun-21 11:33N 49°10' W 123°56'5 5.4
2016-Jun-21 10:33N 49°13' W 123°49'1211.8
2016-Jun-21 09:33N 49°09' W 123°32'1212.3
2016-Jun-21 08:34N 49°08' W 123°14'8 7.7
2016-Jun-21 07:34N 49°09' W 123°02'11 5.3
2016-Jun-21 05:34N 49°06' W 123°18'1211.5
2016-Jun-21 04:33N 48°55' W 123°18'1111.0
2016-Jun-21 03:33N 48°44' W 123°23'3 3.1
2016-Jun-21 02:31N 48°41' W 123°24'0 0.0
2016-Jun-21 01:32N 48°41' W 123°24'1010.3
2016-Jun-21 00:31N 48°51' W 123°21'1212.2
2016-Jun-20 23:33N 49°03' W 123°19'1010.4
2016-Jun-20 22:34N 49°07' W 123°05'2 2.2
2016-Jun-20 21:33N 49°09' W 123°02'0 0.0
2016-Jun-20 20:33N 49°09' W 123°02'0 0.0
2016-Jun-20 19:33N 49°09' W 123°02'0 0.0
2016-Jun-20 18:33N 49°09' W 123°02'0 0.0
2016-Jun-20 17:33N 49°09' W 123°02'0 0.0
2016-Jun-20 16:33N 49°09' W 123°02'0 0.0
2016-Jun-20 15:33N 49°09' W 123°02'0 0.0
2016-Jun-20 14:34N 49°09' W 123°02'0 0.0
2016-Jun-20 13:33N 49°09' W 123°02'0 0.0
2016-Jun-20 12:33N 49°09' W 123°02'0 0.0
2016-Jun-20 11:33N 49°09' W 123°02'0 0.0
2016-Jun-20 10:33N 49°09' W 123°02'0 0.0
2016-Jun-20 09:33N 49°09' W 123°02'0 0.0
2016-Jun-20 08:33N 49°09' W 123°02'0 0.0
2016-Jun-20 07:33N 49°09' W 123°02'0 0.0
2016-Jun-20 06:33N 49°09' W 123°02'0 0.0
2016-Jun-20 05:33N 49°09' W 123°02'0 0.0
2016-Jun-20 04:33N 49°09' W 123°02'0 0.0
2016-Jun-20 03:33N 49°09' W 123°02'0 0.0
2016-Jun-20 02:33N 49°09' W 123°02'0 0.0
2016-Jun-20 01:33N 49°09' W 123°02'0 0.0
2016-Jun-20 00:33N 49°09' W 123°02'0 0.0
2016-Jun-19 23:33N 49°09' W 123°02'0 0.0
2016-Jun-19 22:33N 49°09' W 123°02'0 0.0
2016-Jun-19 21:33N 49°09' W 123°02'0 0.0
2016-Jun-19 20:33N 49°09' W 123°02'0 0.0
2016-Jun-19 19:33N 49°09' W 123°02'0 0.0
2016-Jun-19 18:33N 49°09' W 123°02'0 0.0
2016-Jun-19 17:33N 49°09' W 123°02'0 0.0
2016-Jun-19 16:33N 49°09' W 123°02'0 0.0
2016-Jun-19 15:33N 49°09' W 123°02'  
Track history (hours):
 
Tides and Currents Weather Stations Pressure Air Temp Water Temp Dewpoint Dewpoint Depression Visibility Wind Speed Wind Dir Waves Ship Positions

Carrier Princess

Last reported at 2016-Jun-29 15:33 UTC. Time now 2016-Jun-29 16:34 UTC.
Position N 49°10' W 123°56'.

Length 112 m; draft 3 m.

Type: Cargo ship. MMSI: 316003656.

Date/timePositionNaut miles runAvg speedWind from/ knotsBaromVisibWave heightAir tempDewpointWater temp
2016-Jun-29 15:33N 49°10' W 123°56'0 0.0
2016-Jun-29 14:33N 49°10' W 123°56'0 0.0
2016-Jun-29 13:33N 49°10' W 123°56'0 0.0
2016-Jun-29 12:33N 49°10' W 123°56'0 0.0
2016-Jun-29 11:33N 49°10' W 123°56'6 6.2
2016-Jun-29 10:33N 49°14' W 123°48'1313.4
2016-Jun-29 09:33N 49°09' W 123°29'1312.8
2016-Jun-29 08:34N 49°07' W 123°10'5 5.4
2016-Jun-29 07:33N 49°09' W 123°02'0 0.0
2016-Jun-29 06:33N 49°09' W 123°02'1010.3
2016-Jun-29 05:33N 49°06' W 123°17'1211.7
2016-Jun-29 04:33N 48°55' W 123°18'1111.3
2016-Jun-29 03:33N 48°44' W 123°24'3 1.3
2016-Jun-29 01:27N 48°41' W 123°24'910.7
2016-Jun-29 00:34N 48°51' W 123°21'1212.4
2016-Jun-28 23:33N 49°03' W 123°20'1211.7
2016-Jun-28 22:33N 49°08' W 123°04'1 1.2
2016-Jun-28 21:33N 49°09' W 123°02'1 1.2
2016-Jun-28 20:33N 49°08' W 123°03'1010.3
2016-Jun-28 19:33N 49°06' W 123°19'1312.6
2016-Jun-28 18:33N 49°10' W 123°37'1111.3
2016-Jun-28 17:33N 49°10' W 123°54'1 1.0
2016-Jun-28 16:32N 49°10' W 123°56'0 0.0
2016-Jun-28 15:28N 49°10' W 123°56'0 0.0
2016-Jun-28 14:33N 49°10' W 123°56'0 0.0
2016-Jun-28 13:33N 49°10' W 123°56'0 0.0
2016-Jun-28 12:33N 49°10' W 123°56'0 0.0
2016-Jun-28 11:33N 49°10' W 123°56'6 5.6
2016-Jun-28 10:33N 49°13' W 123°49'1212.3
2016-Jun-28 09:33N 49°09' W 123°31'1313.0
2016-Jun-28 08:34N 49°07' W 123°12'6 6.5
2016-Jun-28 07:33N 49°09' W 123°02'0 0.0
2016-Jun-28 06:33N 49°09' W 123°02'17 8.6
2016-Jun-28 04:33N 48°55' W 123°18'1111.5
2016-Jun-28 03:33N 48°44' W 123°23'3 1.3
2016-Jun-28 01:22N 48°41' W 123°24'810.1
2016-Jun-28 00:33N 48°49' W 123°21'1212.3
2016-Jun-27 23:34N 49°01' W 123°19'1212.2
2016-Jun-27 22:34N 49°08' W 123°03'1 1.0
2016-Jun-27 21:33N 49°09' W 123°02'0 0.0
2016-Jun-27 20:33N 49°09' W 123°02'0 0.0
2016-Jun-27 19:33N 49°09' W 123°02'0 0.0
2016-Jun-27 18:33N 49°09' W 123°02'0 0.0
2016-Jun-27 17:33N 49°09' W 123°02'0 0.0
2016-Jun-27 16:33N 49°09' W 123°02'0 0.0
2016-Jun-27 15:33N 49°09' W 123°02'0 0.0
2016-Jun-27 14:33N 49°09' W 123°02'0 0.0
2016-Jun-27 13:33N 49°09' W 123°02'0 0.0
2016-Jun-27 12:33N 49°09' W 123°02'0 0.0
2016-Jun-27 11:33N 49°09' W 123°02'0 0.0
2016-Jun-27 10:33N 49°09' W 123°02'0 0.0
2016-Jun-27 09:33N 49°09' W 123°02'0 0.0
2016-Jun-27 08:33N 49°09' W 123°02'0 0.0
2016-Jun-27 07:33N 49°09' W 123°02'0 0.0
2016-Jun-27 06:33N 49°09' W 123°02'0 0.0
2016-Jun-27 05:33N 49°09' W 123°02'0 0.0
2016-Jun-27 04:33N 49°09' W 123°02'0 0.0
2016-Jun-27 03:33N 49°09' W 123°02'0 0.0
2016-Jun-27 02:33N 49°09' W 123°02'0 0.0
2016-Jun-27 01:33N 49°09' W 123°02'0 0.0
2016-Jun-27 00:33N 49°09' W 123°02'0 0.0
2016-Jun-26 23:33N 49°09' W 123°02'0 0.0
2016-Jun-26 22:33N 49°09' W 123°02'0 0.0
2016-Jun-26 21:33N 49°09' W 123°02'0 0.0
2016-Jun-26 20:33N 49°09' W 123°02'0 0.0
2016-Jun-26 19:33N 49°09' W 123°02'0 0.0
2016-Jun-26 18:33N 49°09' W 123°02'0 0.0
2016-Jun-26 17:33N 49°09' W 123°02'0 0.0
2016-Jun-26 16:33N 49°09' W 123°02'0 0.1
2016-Jun-26 15:34N 49°09' W 123°02'0 0.1
2016-Jun-26 14:33N 49°09' W 123°02'7 7.3
2016-Jun-26 13:34N 49°08' W 123°13'1010.0
2016-Jun-26 12:33N 49°08' W 123°28'1212.0
2016-Jun-26 11:33N 49°12' W 123°46'7 6.6
2016-Jun-26 10:30N 49°10' W 123°56'0 0.0
2016-Jun-26 09:31N 49°10' W 123°56'4 3.7
2016-Jun-26 08:34N 49°13' W 123°52'1110.7
2016-Jun-26 07:33N 49°11' W 123°36'1211.6
2016-Jun-26 06:33N 49°06' W 123°20'1010.4
2016-Jun-26 05:33N 49°08' W 123°04'2 1.6
2016-Jun-26 04:33N 49°09' W 123°02'0 0.0
2016-Jun-26 03:33N 49°09' W 123°02'0 0.0
2016-Jun-26 02:33N 49°09' W 123°02'0 0.0
2016-Jun-26 01:33N 49°09' W 123°02'0 0.0
2016-Jun-26 00:33N 49°09' W 123°02'0 0.0
2016-Jun-25 23:33N 49°09' W 123°02'4 3.8
2016-Jun-25 22:33N 49°07' W 123°07'8 8.2
2016-Jun-25 21:33N 49°06' W 123°20'1211.9
2016-Jun-25 20:33N 49°10' W 123°37'1111.2
2016-Jun-25 19:33N 49°11' W 123°54'2 1.7
2016-Jun-25 18:33N 49°10' W 123°56'0 0.0
2016-Jun-25 17:33N 49°10' W 123°56'0 0.0
2016-Jun-25 16:31N 49°10' W 123°56'0 0.0
2016-Jun-25 15:33N 49°10' W 123°56'0 0.0
2016-Jun-25 14:33N 49°10' W 123°56'0 0.0
2016-Jun-25 13:33N 49°10' W 123°56'0 0.0
2016-Jun-25 12:33N 49°10' W 123°56'0 0.0
2016-Jun-25 11:33N 49°10' W 123°56'6 6.0
2016-Jun-25 10:33N 49°14' W 123°49'1312.6
2016-Jun-25 09:33N 49°09' W 123°30'1212.3
2016-Jun-25 08:34N 49°07' W 123°12'7 6.6
2016-Jun-25 07:33N 49°09' W 123°02'1 0.6
2016-Jun-25 06:33N 49°08' W 123°03'1010.2
2016-Jun-25 05:33N 49°06' W 123°18'1110.8
2016-Jun-25 04:33N 48°55' W 123°17'1110.6
2016-Jun-25 03:34N 48°45' W 123°22'4 2.8
2016-Jun-25 02:04N 48°41' W 123°24'0 0.0
2016-Jun-25 01:32N 48°41' W 123°24'9 8.8
2016-Jun-25 00:33N 48°50' W 123°21'1211.6
2016-Jun-24 23:33N 49°01' W 123°20'1211.7
2016-Jun-24 22:34N 49°07' W 123°05'2 2.3
2016-Jun-24 21:34N 49°09' W 123°02'1 1.3
2016-Jun-24 20:34N 49°08' W 123°04'10 9.9
2016-Jun-24 19:33N 49°06' W 123°18'1313.4
2016-Jun-24 18:33N 49°11' W 123°38'1211.9
2016-Jun-24 17:34N 49°10' W 123°56'0 0.2
2016-Jun-24 16:33N 49°10' W 123°56'0 0.0
2016-Jun-24 15:33N 49°10' W 123°56'0 0.0
2016-Jun-24 14:33N 49°10' W 123°56'0 0.0
2016-Jun-24 13:33N 49°10' W 123°56'0 0.0
2016-Jun-24 12:33N 49°10' W 123°56'0 0.0
2016-Jun-24 11:33N 49°10' W 123°56'4 3.7
2016-Jun-24 10:34N 49°13' W 123°52'1312.7
2016-Jun-24 09:33N 49°10' W 123°33'1312.9
2016-Jun-24 08:34N 49°08' W 123°13'7 7.5
2016-Jun-24 07:33N 49°09' W 123°02'17 5.5
2016-Jun-24 04:33N 48°56' W 123°18'1111.5
2016-Jun-24 03:33N 48°45' W 123°23'4 3.3
2016-Jun-24 02:29N 48°41' W 123°24'0 0.0
2016-Jun-24 01:33N 48°41' W 123°24'1010.2
2016-Jun-24 00:33N 48°51' W 123°21'1212.1
2016-Jun-23 23:33N 49°03' W 123°19'1212.4
2016-Jun-23 22:33N 49°09' W 123°02'0 0.2
2016-Jun-23 21:33N 49°09' W 123°02'3 2.8
2016-Jun-23 20:33N 49°07' W 123°05'1010.0
2016-Jun-23 19:33N 49°06' W 123°21'1413.5
2016-Jun-23 18:33N 49°12' W 123°40'1010.5
2016-Jun-23 17:33N 49°10' W 123°56'0 0.0
2016-Jun-23 16:33N 49°10' W 123°56'0 0.0
2016-Jun-23 15:33N 49°10' W 123°56'0 0.0
2016-Jun-23 14:33N 49°10' W 123°56'0 0.0
2016-Jun-23 13:33N 49°10' W 123°56'0 0.0
2016-Jun-23 12:33N 49°10' W 123°56'0 0.0
2016-Jun-23 11:33N 49°10' W 123°56'4 4.1
2016-Jun-23 10:33N 49°13' W 123°51'1313.2
2016-Jun-23 09:33N 49°10' W 123°32'1312.5
2016-Jun-23 08:33N 49°08' W 123°13'7 7.1
2016-Jun-23 07:33N 49°09' W 123°02'12 6.2
2016-Jun-23 05:33N 49°05' W 123°20'1212.0
2016-Jun-23 04:33N 48°53' W 123°18'1212.1
2016-Jun-23 03:33N 48°41' W 123°24'0 0.1
2016-Jun-23 01:25N 48°41' W 123°24'910.9
2016-Jun-23 00:33N 48°51' W 123°21'1111.4
2016-Jun-22 23:33N 49°02' W 123°19'1111.0
2016-Jun-22 22:33N 49°07' W 123°04'2 2.0
2016-Jun-22 21:34N 49°09' W 123°02'2 2.3
2016-Jun-22 20:33N 49°07' W 123°05'9 8.8
2016-Jun-22 19:33N 49°06' W 123°18'1413.5
2016-Jun-22 18:34N 49°10' W 123°38'1211.6
2016-Jun-22 17:33N 49°10' W 123°56'0 0.1
2016-Jun-22 16:33N 49°10' W 123°56'0 0.0
2016-Jun-22 15:33N 49°10' W 123°56'0 0.0
2016-Jun-22 14:34N 49°10' W 123°56'0 0.0
2016-Jun-22 13:33N 49°10' W 123°56'0 0.0
2016-Jun-22 12:34N 49°10' W 123°56'0 0.0
2016-Jun-22 11:33N 49°10' W 123°56'5 4.8
2016-Jun-22 10:33N 49°13' W 123°50'1212.2
2016-Jun-22 09:33N 49°10' W 123°32'1313.5
2016-Jun-22 08:33N 49°07' W 123°12'7 6.7
2016-Jun-22 07:34N 49°09' W 123°02'1 0.7
2016-Jun-22 06:33N 49°08' W 123°03'1010.4
2016-Jun-22 05:34N 49°06' W 123°19'1212.2
2016-Jun-22 04:34N 48°54' W 123°18'1211.7
2016-Jun-22 03:33N 48°43' W 123°24'2 1.5
2016-Jun-22 02:31N 48°41' W 123°24'1 0.7
2016-Jun-22 01:31N 48°42' W 123°23'1010.6
2016-Jun-22 00:33N 48°52' W 123°21'1110.7
2016-Jun-21 23:33N 49°02' W 123°20'1110.6
2016-Jun-21 22:34N 49°07' W 123°05'3 2.7
2016-Jun-21 21:33N 49°09' W 123°02'3 3.3
2016-Jun-21 20:33N 49°07' W 123°06'10 9.8
2016-Jun-21 19:33N 49°06' W 123°21'1312.7
2016-Jun-21 18:33N 49°11' W 123°39'1110.8
2016-Jun-21 17:33N 49°10' W 123°56'0 0.1
2016-Jun-21 16:33N 49°10' W 123°56'0 0.0
2016-Jun-21 15:33N 49°10' W 123°56'0 0.0
2016-Jun-21 14:33N 49°10' W 123°56'0 0.0
2016-Jun-21 13:33N 49°10' W 123°56'0 0.0
2016-Jun-21 12:33N 49°10' W 123°56'0 0.0
2016-Jun-21 11:33N 49°10' W 123°56'5 5.4
2016-Jun-21 10:33N 49°13' W 123°49'1211.8
2016-Jun-21 09:33N 49°09' W 123°32'1212.3
2016-Jun-21 08:34N 49°08' W 123°14'8 7.7
2016-Jun-21 07:34N 49°09' W 123°02'11 5.3
2016-Jun-21 05:34N 49°06' W 123°18'1211.5
2016-Jun-21 04:33N 48°55' W 123°18'1111.0
2016-Jun-21 03:33N 48°44' W 123°23'3 3.1
2016-Jun-21 02:31N 48°41' W 123°24'0 0.0
2016-Jun-21 01:32N 48°41' W 123°24'1010.3
2016-Jun-21 00:31N 48°51' W 123°21'1212.2
2016-Jun-20 23:33N 49°03' W 123°19'1010.4
2016-Jun-20 22:34N 49°07' W 123°05'2 2.2
2016-Jun-20 21:33N 49°09' W 123°02'0 0.0
2016-Jun-20 20:33N 49°09' W 123°02'0 0.0
2016-Jun-20 19:33N 49°09' W 123°02'0 0.0
2016-Jun-20 18:33N 49°09' W 123°02'0 0.0
2016-Jun-20 17:33N 49°09' W 123°02'0 0.0
2016-Jun-20 16:33N 49°09' W 123°02'0 0.0
2016-Jun-20 15:33N 49°09' W 123°02'0 0.0
2016-Jun-20 14:34N 49°09' W 123°02'0 0.0
2016-Jun-20 13:33N 49°09' W 123°02'0 0.0
2016-Jun-20 12:33N 49°09' W 123°02'0 0.0
2016-Jun-20 11:33N 49°09' W 123°02'0 0.0
2016-Jun-20 10:33N 49°09' W 123°02'0 0.0
2016-Jun-20 09:33N 49°09' W 123°02'0 0.0
2016-Jun-20 08:33N 49°09' W 123°02'0 0.0
2016-Jun-20 07:33N 49°09' W 123°02'0 0.0
2016-Jun-20 06:33N 49°09' W 123°02'0 0.0
2016-Jun-20 05:33N 49°09' W 123°02'0 0.0
2016-Jun-20 04:33N 49°09' W 123°02'0 0.0
2016-Jun-20 03:33N 49°09' W 123°02'0 0.0
2016-Jun-20 02:33N 49°09' W 123°02'0 0.0
2016-Jun-20 01:33N 49°09' W 123°02'0 0.0
2016-Jun-20 00:33N 49°09' W 123°02'0 0.0
2016-Jun-19 23:33N 49°09' W 123°02'0 0.0
2016-Jun-19 22:33N 49°09' W 123°02'0 0.0
2016-Jun-19 21:33N 49°09' W 123°02'0 0.0
2016-Jun-19 20:33N 49°09' W 123°02'0 0.0
2016-Jun-19 19:33N 49°09' W 123°02'0 0.0
2016-Jun-19 18:33N 49°09' W 123°02'0 0.0
2016-Jun-19 17:33N 49°09' W 123°02'0 0.0
2016-Jun-19 16:33N 49°09' W 123°02'0 0.0
2016-Jun-19 15:33N 49°09' W 123°02'  

Dump ship's entire track history